sensor_id;sensor_type;location;lat;lon;timestamp;temperature;humidity
48007;DHT22;33771;48.180;11.400;2023-05-07T00:01:43;11.50;99.90
48007;DHT22;33771;48.180;11.400;2023-05-07T00:04:08;11.50;99.90
48007;DHT22;33771;48.180;11.400;2023-05-07T00:06:34;11.40;99.90
48007;DHT22;33771;48.180;11.400;2023-05-07T00:09:00;11.40;99.90
48007;DHT22;33771;48.180;11.400;2023-05-07T00:11:27;11.40;99.90
48007;DHT22;33771;48.180;11.400;2023-05-07T00:13:52;11.40;99.90
48007;DHT22;33771;48.180;11.400;2023-05-07T00:16:18;11.40;99.90
48007;DHT22;33771;48.180;11.400;2023-05-07T00:18:44;11.30;99.90
48007;DHT22;33771;48.180;11.400;2023-05-07T00:21:10;11.30;99.90
48007;DHT22;33771;48.180;11.400;2023-05-07T00:23:36;11.40;99.90
48007;DHT22;33771;48.180;11.400;2023-05-07T00:26:01;11.30;99.90
48007;DHT22;33771;48.180;11.400;2023-05-07T00:28:27;11.30;99.90
48007;DHT22;33771;48.180;11.400;2023-05-07T00:30:53;11.30;99.90
48007;DHT22;33771;48.180;11.400;2023-05-07T00:33:18;11.30;99.90
48007;DHT22;33771;48.180;11.400;2023-05-07T00:35:45;11.30;99.90
48007;DHT22;33771;48.180;11.400;2023-05-07T00:38:11;11.30;99.90
48007;DHT22;33771;48.180;11.400;2023-05-07T00:40:36;11.30;99.90
48007;DHT22;33771;48.180;11.400;2023-05-07T00:43:02;11.30;99.90
48007;DHT22;33771;48.180;11.400;2023-05-07T00:45:28;11.30;99.90
48007;DHT22;33771;48.180;11.400;2023-05-07T00:47:55;11.20;99.90
48007;DHT22;33771;48.180;11.400;2023-05-07T00:50:22;11.20;99.90
48007;DHT22;33771;48.180;11.400;2023-05-07T00:52:48;11.20;99.90
48007;DHT22;33771;48.180;11.400;2023-05-07T00:55:14;11.20;99.90
48007;DHT22;33771;48.180;11.400;2023-05-07T00:57:42;11.10;99.90
48007;DHT22;33771;48.180;11.400;2023-05-07T01:00:08;11.10;99.90
48007;DHT22;33771;48.180;11.400;2023-05-07T01:02:35;11.10;99.90
48007;DHT22;33771;48.180;11.400;2023-05-07T01:05:01;11.10;99.90
48007;DHT22;33771;48.180;11.400;2023-05-07T01:07:29;11.10;99.90
48007;DHT22;33771;48.180;11.400;2023-05-07T01:09:56;11.10;99.90
48007;DHT22;33771;48.180;11.400;2023-05-07T01:12:22;11.20;99.90
48007;DHT22;33771;48.180;11.400;2023-05-07T01:14:48;11.20;99.90
48007;DHT22;33771;48.180;11.400;2023-05-07T01:17:15;11.20;99.90
48007;DHT22;33771;48.180;11.400;2023-05-07T01:19:41;11.20;99.90
48007;DHT22;33771;48.180;11.400;2023-05-07T01:22:10;11.20;99.90
48007;DHT22;33771;48.180;11.400;2023-05-07T01:24:40;11.20;99.90
48007;DHT22;33771;48.180;11.400;2023-05-07T01:27:06;11.10;99.90
48007;DHT22;33771;48.180;11.400;2023-05-07T01:29:32;11.10;99.90
48007;DHT22;33771;48.180;11.400;2023-05-07T01:31:59;11.10;99.90
48007;DHT22;33771;48.180;11.400;2023-05-07T01:34:28;11.10;99.90
48007;DHT22;33771;48.180;11.400;2023-05-07T01:36:55;11.10;99.90
48007;DHT22;33771;48.180;11.400;2023-05-07T01:39:25;11.10;99.90
48007;DHT22;33771;48.180;11.400;2023-05-07T01:41:51;11.10;99.90
48007;DHT22;33771;48.180;11.400;2023-05-07T01:44:17;11.10;99.90
48007;DHT22;33771;48.180;11.400;2023-05-07T01:46:43;11.10;99.90
48007;DHT22;33771;48.180;11.400;2023-05-07T01:49:09;11.10;99.90
48007;DHT22;33771;48.180;11.400;2023-05-07T01:51:35;11.10;99.90
48007;DHT22;33771;48.180;11.400;2023-05-07T01:54:01;11.10;99.90
48007;DHT22;33771;48.180;11.400;2023-05-07T01:56:28;11.10;99.90
48007;DHT22;33771;48.180;11.400;2023-05-07T01:58:54;11.10;99.90
48007;DHT22;33771;48.180;11.400;2023-05-07T02:01:19;11.10;99.90
48007;DHT22;33771;48.180;11.400;2023-05-07T02:03:45;11.10;99.90
48007;DHT22;33771;48.180;11.400;2023-05-07T02:06:11;11.10;99.90
48007;DHT22;33771;48.180;11.400;2023-05-07T02:08:36;11.00;99.90
48007;DHT22;33771;48.180;11.400;2023-05-07T02:11:02;11.00;99.90
48007;DHT22;33771;48.180;11.400;2023-05-07T02:13:32;11.00;99.90
48007;DHT22;33771;48.180;11.400;2023-05-07T02:15:58;11.00;99.90
48007;DHT22;33771;48.180;11.400;2023-05-07T02:18:24;10.90;99.90
48007;DHT22;33771;48.180;11.400;2023-05-07T02:20:49;10.90;99.90
48007;DHT22;33771;48.180;11.400;2023-05-07T02:23:15;10.90;99.90
48007;DHT22;33771;48.180;11.400;2023-05-07T02:25:40;10.90;99.90
48007;DHT22;33771;48.180;11.400;2023-05-07T02:28:06;10.80;99.90
48007;DHT22;33771;48.180;11.400;2023-05-07T02:30:32;10.80;99.90
48007;DHT22;33771;48.180;11.400;2023-05-07T02:32:58;10.80;99.90
48007;DHT22;33771;48.180;11.400;2023-05-07T02:35:24;10.80;99.90
48007;DHT22;33771;48.180;11.400;2023-05-07T02:37:50;10.80;99.90
48007;DHT22;33771;48.180;11.400;2023-05-07T02:40:16;10.80;99.90
48007;DHT22;33771;48.180;11.400;2023-05-07T02:42:41;10.70;99.90
48007;DHT22;33771;48.180;11.400;2023-05-07T02:45:07;10.70;99.90
48007;DHT22;33771;48.180;11.400;2023-05-07T02:47:33;10.70;99.90
48007;DHT22;33771;48.180;11.400;2023-05-07T02:49:58;10.70;99.90
48007;DHT22;33771;48.180;11.400;2023-05-07T02:52:24;10.70;99.90
48007;DHT22;33771;48.180;11.400;2023-05-07T02:54:49;10.70;99.90
48007;DHT22;33771;48.180;11.400;2023-05-07T02:57:15;10.70;99.90
48007;DHT22;33771;48.180;11.400;2023-05-07T02:59:42;10.60;99.90
48007;DHT22;33771;48.180;11.400;2023-05-07T03:02:07;10.60;99.90
48007;DHT22;33771;48.180;11.400;2023-05-07T03:04:33;10.60;99.90
48007;DHT22;33771;48.180;11.400;2023-05-07T03:06:58;10.60;99.90
48007;DHT22;33771;48.180;11.400;2023-05-07T03:09:24;10.60;99.90
48007;DHT22;33771;48.180;11.400;2023-05-07T03:11:49;10.50;99.90
48007;DHT22;33771;48.180;11.400;2023-05-07T03:14:15;10.50;99.90
48007;DHT22;33771;48.180;11.400;2023-05-07T03:16:40;10.50;99.90
48007;DHT22;33771;48.180;11.400;2023-05-07T03:19:06;10.40;99.90
48007;DHT22;33771;48.180;11.400;2023-05-07T03:21:31;10.40;99.90
48007;DHT22;33771;48.180;11.400;2023-05-07T03:23:59;10.40;99.90
48007;DHT22;33771;48.180;11.400;2023-05-07T03:26:25;10.40;99.90
48007;DHT22;33771;48.180;11.400;2023-05-07T03:28:51;10.30;99.90
48007;DHT22;33771;48.180;11.400;2023-05-07T03:31:16;10.30;99.90
48007;DHT22;33771;48.180;11.400;2023-05-07T03:33:56;10.30;99.90
48007;DHT22;33771;48.180;11.400;2023-05-07T03:36:22;10.30;99.90
48007;DHT22;33771;48.180;11.400;2023-05-07T03:38:48;10.30;99.90
48007;DHT22;33771;48.180;11.400;2023-05-07T03:41:14;10.20;99.90
48007;DHT22;33771;48.180;11.400;2023-05-07T03:43:40;10.20;99.90
48007;DHT22;33771;48.180;11.400;2023-05-07T03:46:05;10.20;99.90
48007;DHT22;33771;48.180;11.400;2023-05-07T03:48:31;10.20;99.90
48007;DHT22;33771;48.180;11.400;2023-05-07T03:50:57;10.20;99.90
48007;DHT22;33771;48.180;11.400;2023-05-07T03:53:23;10.20;99.90
48007;DHT22;33771;48.180;11.400;2023-05-07T03:55:48;10.20;99.90
48007;DHT22;33771;48.180;11.400;2023-05-07T03:58:15;10.20;99.90
48007;DHT22;33771;48.180;11.400;2023-05-07T04:00:40;10.20;99.90
48007;DHT22;33771;48.180;11.400;2023-05-07T04:03:06;10.20;99.90
48007;DHT22;33771;48.180;11.400;2023-05-07T04:05:31;10.10;99.90
48007;DHT22;33771;48.180;11.400;2023-05-07T04:08:00;10.10;99.90
48007;DHT22;33771;48.180;11.400;2023-05-07T04:10:26;10.10;99.90
48007;DHT22;33771;48.180;11.400;2023-05-07T04:12:53;10.20;99.90
48007;DHT22;33771;48.180;11.400;2023-05-07T04:15:19;10.10;99.90
48007;DHT22;33771;48.180;11.400;2023-05-07T04:17:45;10.20;99.90
48007;DHT22;33771;48.180;11.400;2023-05-07T04:20:14;10.20;99.90
48007;DHT22;33771;48.180;11.400;2023-05-07T04:22:40;10.20;99.90
48007;DHT22;33771;48.180;11.400;2023-05-07T04:25:06;10.20;99.90
48007;DHT22;33771;48.180;11.400;2023-05-07T04:27:33;10.20;99.90
48007;DHT22;33771;48.180;11.400;2023-05-07T04:29:58;10.20;99.90
48007;DHT22;33771;48.180;11.400;2023-05-07T04:32:26;10.20;99.90
48007;DHT22;33771;48.180;11.400;2023-05-07T04:34:52;10.20;99.90
48007;DHT22;33771;48.180;11.400;2023-05-07T04:37:17;10.20;99.90
48007;DHT22;33771;48.180;11.400;2023-05-07T04:39:43;10.20;99.90
48007;DHT22;33771;48.180;11.400;2023-05-07T04:42:08;10.30;99.90
48007;DHT22;33771;48.180;11.400;2023-05-07T04:44:35;10.30;99.90
48007;DHT22;33771;48.180;11.400;2023-05-07T04:47:02;10.40;99.90
48007;DHT22;33771;48.180;11.400;2023-05-07T04:49:27;10.50;99.90
48007;DHT22;33771;48.180;11.400;2023-05-07T04:51:53;10.70;99.90
48007;DHT22;33771;48.180;11.400;2023-05-07T04:54:19;10.80;99.90
48007;DHT22;33771;48.180;11.400;2023-05-07T04:56:44;10.90;99.90
48007;DHT22;33771;48.180;11.400;2023-05-07T04:59:10;11.00;99.90
48007;DHT22;33771;48.180;11.400;2023-05-07T05:01:35;11.10;99.90
48007;DHT22;33771;48.180;11.400;2023-05-07T05:04:01;11.10;99.90
48007;DHT22;33771;48.180;11.400;2023-05-07T05:06:26;11.10;99.90
48007;DHT22;33771;48.180;11.400;2023-05-07T05:08:52;11.20;99.90
48007;DHT22;33771;48.180;11.400;2023-05-07T05:11:17;11.20;99.90
48007;DHT22;33771;48.180;11.400;2023-05-07T05:13:43;11.20;99.90
48007;DHT22;33771;48.180;11.400;2023-05-07T05:16:08;11.20;99.90
48007;DHT22;33771;48.180;11.400;2023-05-07T05:18:34;11.30;99.90
48007;DHT22;33771;48.180;11.400;2023-05-07T05:21:00;11.30;99.90
48007;DHT22;33771;48.180;11.400;2023-05-07T05:23:25;11.30;99.90
48007;DHT22;33771;48.180;11.400;2023-05-07T05:25:56;11.40;99.90
48007;DHT22;33771;48.180;11.400;2023-05-07T05:28:22;11.50;99.90
48007;DHT22;33771;48.180;11.400;2023-05-07T05:30:48;11.60;99.90
48007;DHT22;33771;48.180;11.400;2023-05-07T05:33:14;11.60;99.90
48007;DHT22;33771;48.180;11.400;2023-05-07T05:35:40;11.70;99.90
48007;DHT22;33771;48.180;11.400;2023-05-07T05:38:05;11.80;99.90
48007;DHT22;33771;48.180;11.400;2023-05-07T05:40:31;11.80;99.90
48007;DHT22;33771;48.180;11.400;2023-05-07T05:42:57;12.00;99.90
48007;DHT22;33771;48.180;11.400;2023-05-07T05:45:22;12.10;99.90
48007;DHT22;33771;48.180;11.400;2023-05-07T05:47:48;12.20;99.90
48007;DHT22;33771;48.180;11.400;2023-05-07T05:50:14;12.30;99.90
48007;DHT22;33771;48.180;11.400;2023-05-07T05:52:39;12.40;99.90
48007;DHT22;33771;48.180;11.400;2023-05-07T05:55:06;12.50;99.90
48007;DHT22;33771;48.180;11.400;2023-05-07T05:57:32;12.70;99.90
48007;DHT22;33771;48.180;11.400;2023-05-07T05:59:57;12.90;99.90
48007;DHT22;33771;48.180;11.400;2023-05-07T06:02:23;13.10;99.90
48007;DHT22;33771;48.180;11.400;2023-05-07T06:04:49;13.30;99.90
48007;DHT22;33771;48.180;11.400;2023-05-07T06:07:14;13.50;99.90
48007;DHT22;33771;48.180;11.400;2023-05-07T06:09:40;13.70;99.90
48007;DHT22;33771;48.180;11.400;2023-05-07T06:12:05;14.00;99.90
48007;DHT22;33771;48.180;11.400;2023-05-07T06:14:31;14.20;99.90
48007;DHT22;33771;48.180;11.400;2023-05-07T06:16:57;14.40;99.90
48007;DHT22;33771;48.180;11.400;2023-05-07T06:19:22;14.60;99.90
48007;DHT22;33771;48.180;11.400;2023-05-07T06:21:49;14.80;99.90
48007;DHT22;33771;48.180;11.400;2023-05-07T06:24:15;15.00;99.90
48007;DHT22;33771;48.180;11.400;2023-05-07T06:26:41;15.10;99.90
48007;DHT22;33771;48.180;11.400;2023-05-07T06:29:06;15.30;99.90
48007;DHT22;33771;48.180;11.400;2023-05-07T06:31:32;15.40;99.90
48007;DHT22;33771;48.180;11.400;2023-05-07T06:33:58;15.50;99.90
48007;DHT22;33771;48.180;11.400;2023-05-07T06:36:24;15.60;99.90
48007;DHT22;33771;48.180;11.400;2023-05-07T06:38:50;15.70;99.90
48007;DHT22;33771;48.180;11.400;2023-05-07T06:41:15;15.80;99.90
48007;DHT22;33771;48.180;11.400;2023-05-07T06:43:41;15.90;99.90
48007;DHT22;33771;48.180;11.400;2023-05-07T06:46:06;16.00;99.90
48007;DHT22;33771;48.180;11.400;2023-05-07T06:48:32;16.20;99.90
48007;DHT22;33771;48.180;11.400;2023-05-07T06:50:57;16.30;99.90
48007;DHT22;33771;48.180;11.400;2023-05-07T06:53:23;16.30;99.90
48007;DHT22;33771;48.180;11.400;2023-05-07T06:55:49;16.40;99.90
48007;DHT22;33771;48.180;11.400;2023-05-07T06:58:15;16.40;99.90
48007;DHT22;33771;48.180;11.400;2023-05-07T07:00:41;16.50;99.90
48007;DHT22;33771;48.180;11.400;2023-05-07T07:03:07;16.60;99.90
48007;DHT22;33771;48.180;11.400;2023-05-07T07:05:32;16.70;99.90
48007;DHT22;33771;48.180;11.400;2023-05-07T07:07:58;16.70;99.90
48007;DHT22;33771;48.180;11.400;2023-05-07T07:10:24;16.80;99.90
48007;DHT22;33771;48.180;11.400;2023-05-07T07:12:49;16.90;99.90
48007;DHT22;33771;48.180;11.400;2023-05-07T07:15:17;17.00;99.90
48007;DHT22;33771;48.180;11.400;2023-05-07T07:17:43;17.20;99.90
48007;DHT22;33771;48.180;11.400;2023-05-07T07:20:09;17.20;99.90
48007;DHT22;33771;48.180;11.400;2023-05-07T07:22:35;17.20;99.90
48007;DHT22;33771;48.180;11.400;2023-05-07T07:25:00;17.30;99.90
48007;DHT22;33771;48.180;11.400;2023-05-07T07:27:26;17.40;99.90
48007;DHT22;33771;48.180;11.400;2023-05-07T07:29:52;17.50;99.90
48007;DHT22;33771;48.180;11.400;2023-05-07T07:32:18;17.60;99.90
48007;DHT22;33771;48.180;11.400;2023-05-07T07:34:46;17.70;99.90
48007;DHT22;33771;48.180;11.400;2023-05-07T07:37:12;17.70;99.90
48007;DHT22;33771;48.180;11.400;2023-05-07T07:39:38;17.90;99.90
48007;DHT22;33771;48.180;11.400;2023-05-07T07:42:04;17.90;99.90
48007;DHT22;33771;48.180;11.400;2023-05-07T07:44:29;18.00;99.90
48007;DHT22;33771;48.180;11.400;2023-05-07T07:46:55;18.10;99.90
48007;DHT22;33771;48.180;11.400;2023-05-07T07:49:20;18.20;99.90
48007;DHT22;33771;48.180;11.400;2023-05-07T07:51:46;18.20;99.90
48007;DHT22;33771;48.180;11.400;2023-05-07T07:54:11;18.30;99.90
48007;DHT22;33771;48.180;11.400;2023-05-07T07:56:38;18.30;99.90
48007;DHT22;33771;48.180;11.400;2023-05-07T07:59:03;18.30;99.90
48007;DHT22;33771;48.180;11.400;2023-05-07T08:01:32;18.40;99.90
48007;DHT22;33771;48.180;11.400;2023-05-07T08:03:58;18.50;99.90
48007;DHT22;33771;48.180;11.400;2023-05-07T08:06:24;18.60;99.90
48007;DHT22;33771;48.180;11.400;2023-05-07T08:08:51;18.60;99.90
48007;DHT22;33771;48.180;11.400;2023-05-07T08:11:16;18.70;99.90
48007;DHT22;33771;48.180;11.400;2023-05-07T08:13:42;18.80;99.90
48007;DHT22;33771;48.180;11.400;2023-05-07T08:16:08;18.90;99.90
48007;DHT22;33771;48.180;11.400;2023-05-07T08:18:34;18.90;99.90
48007;DHT22;33771;48.180;11.400;2023-05-07T08:21:00;19.00;99.90
48007;DHT22;33771;48.180;11.400;2023-05-07T08:23:26;19.00;99.90
48007;DHT22;33771;48.180;11.400;2023-05-07T08:25:51;19.10;99.90
48007;DHT22;33771;48.180;11.400;2023-05-07T08:28:17;19.10;99.90
48007;DHT22;33771;48.180;11.400;2023-05-07T08:30:43;19.10;99.90
48007;DHT22;33771;48.180;11.400;2023-05-07T08:33:09;19.10;99.90
48007;DHT22;33771;48.180;11.400;2023-05-07T08:35:35;19.20;99.90
48007;DHT22;33771;48.180;11.400;2023-05-07T08:38:00;19.30;99.90
48007;DHT22;33771;48.180;11.400;2023-05-07T08:40:26;19.50;99.90
48007;DHT22;33771;48.180;11.400;2023-05-07T08:42:53;19.50;99.90
48007;DHT22;33771;48.180;11.400;2023-05-07T08:45:20;19.60;99.90
48007;DHT22;33771;48.180;11.400;2023-05-07T08:47:55;19.60;99.90
48007;DHT22;33771;48.180;11.400;2023-05-07T08:50:23;19.70;99.90
48007;DHT22;33771;48.180;11.400;2023-05-07T08:52:49;19.70;99.90
48007;DHT22;33771;48.180;11.400;2023-05-07T08:55:15;19.70;99.90
48007;DHT22;33771;48.180;11.400;2023-05-07T08:57:40;19.80;99.90
48007;DHT22;33771;48.180;11.400;2023-05-07T09:00:07;19.90;99.90
48007;DHT22;33771;48.180;11.400;2023-05-07T09:02:35;20.00;99.90
48007;DHT22;33771;48.180;11.400;2023-05-07T09:05:00;20.10;99.90
48007;DHT22;33771;48.180;11.400;2023-05-07T09:07:26;20.30;99.90
48007;DHT22;33771;48.180;11.400;2023-05-07T09:09:52;20.30;99.90
48007;DHT22;33771;48.180;11.400;2023-05-07T09:12:20;20.40;99.90
48007;DHT22;33771;48.180;11.400;2023-05-07T09:14:45;20.50;99.90
48007;DHT22;33771;48.180;11.400;2023-05-07T09:17:12;20.70;99.90
48007;DHT22;33771;48.180;11.400;2023-05-07T09:19:38;20.70;99.90
48007;DHT22;33771;48.180;11.400;2023-05-07T09:22:05;20.70;99.90
48007;DHT22;33771;48.180;11.400;2023-05-07T09:24:32;20.90;99.90
48007;DHT22;33771;48.180;11.400;2023-05-07T09:27:03;21.00;99.90
48007;DHT22;33771;48.180;11.400;2023-05-07T09:29:29;21.10;99.90
48007;DHT22;33771;48.180;11.400;2023-05-07T09:31:55;21.20;99.90
48007;DHT22;33771;48.180;11.400;2023-05-07T09:34:21;21.40;99.90
48007;DHT22;33771;48.180;11.400;2023-05-07T09:36:47;21.40;99.90
48007;DHT22;33771;48.180;11.400;2023-05-07T09:39:13;21.50;99.90
48007;DHT22;33771;48.180;11.400;2023-05-07T09:41:47;21.60;99.90
48007;DHT22;33771;48.180;11.400;2023-05-07T09:44:14;21.70;99.90
48007;DHT22;33771;48.180;11.400;2023-05-07T09:46:43;21.70;99.90
48007;DHT22;33771;48.180;11.400;2023-05-07T09:49:15;21.90;99.90
48007;DHT22;33771;48.180;11.400;2023-05-07T09:51:47;21.90;99.90
48007;DHT22;33771;48.180;11.400;2023-05-07T09:54:13;21.90;99.90
48007;DHT22;33771;48.180;11.400;2023-05-07T09:56:39;21.90;99.90
48007;DHT22;33771;48.180;11.400;2023-05-07T09:59:07;22.00;99.90
48007;DHT22;33771;48.180;11.400;2023-05-07T10:01:36;22.10;99.90
48007;DHT22;33771;48.180;11.400;2023-05-07T10:04:02;22.30;99.90
48007;DHT22;33771;48.180;11.400;2023-05-07T10:06:30;22.40;99.90
48007;DHT22;33771;48.180;11.400;2023-05-07T10:08:56;22.40;99.90
48007;DHT22;33771;48.180;11.400;2023-05-07T10:11:22;22.20;99.90
48007;DHT22;33771;48.180;11.400;2023-05-07T10:13:48;22.30;99.90
48007;DHT22;33771;48.180;11.400;2023-05-07T10:16:14;22.40;99.90
48007;DHT22;33771;48.180;11.400;2023-05-07T10:18:40;22.50;99.90
48007;DHT22;33771;48.180;11.400;2023-05-07T10:21:23;22.50;99.90
48007;DHT22;33771;48.180;11.400;2023-05-07T10:23:59;22.50;99.90
48007;DHT22;33771;48.180;11.400;2023-05-07T10:26:30;22.60;99.90
48007;DHT22;33771;48.180;11.400;2023-05-07T10:29:01;22.70;99.90
48007;DHT22;33771;48.180;11.400;2023-05-07T10:34:26;22.90;99.90
48007;DHT22;33771;48.180;11.400;2023-05-07T10:36:55;23.20;99.90
48007;DHT22;33771;48.180;11.400;2023-05-07T10:39:30;23.30;99.90
48007;DHT22;33771;48.180;11.400;2023-05-07T10:41:56;23.60;99.90
48007;DHT22;33771;48.180;11.400;2023-05-07T10:44:28;23.70;99.90
48007;DHT22;33771;48.180;11.400;2023-05-07T10:47:11;23.70;99.90
48007;DHT22;33771;48.180;11.400;2023-05-07T10:52:32;23.60;99.90
48007;DHT22;33771;48.180;11.400;2023-05-07T10:57:46;23.40;99.90
48007;DHT22;33771;48.180;11.400;2023-05-07T11:05:26;23.30;99.90
48007;DHT22;33771;48.180;11.400;2023-05-07T11:10:21;23.30;99.90
48007;DHT22;33771;48.180;11.400;2023-05-07T11:15:13;23.50;99.90
48007;DHT22;33771;48.180;11.400;2023-05-07T11:17:59;24.00;99.90
48007;DHT22;33771;48.180;11.400;2023-05-07T11:20:48;24.00;99.90
48007;DHT22;33771;48.180;11.400;2023-05-07T11:26:09;24.30;99.90
48007;DHT22;33771;48.180;11.400;2023-05-07T11:28:39;24.40;99.90
48007;DHT22;33771;48.180;11.400;2023-05-07T11:31:05;24.30;99.90
48007;DHT22;33771;48.180;11.400;2023-05-07T11:33:31;24.40;99.90
48007;DHT22;33771;48.180;11.400;2023-05-07T11:35:59;24.40;99.90
48007;DHT22;33771;48.180;11.400;2023-05-07T11:38:25;24.60;99.90
48007;DHT22;33771;48.180;11.400;2023-05-07T11:40:57;24.80;99.90
48007;DHT22;33771;48.180;11.400;2023-05-07T11:43:23;24.90;99.90
48007;DHT22;33771;48.180;11.400;2023-05-07T11:45:49;24.70;99.90
48007;DHT22;33771;48.180;11.400;2023-05-07T11:48:16;24.60;99.90
48007;DHT22;33771;48.180;11.400;2023-05-07T11:51:02;24.70;99.90
48007;DHT22;33771;48.180;11.400;2023-05-07T11:53:37;24.50;99.90
48007;DHT22;33771;48.180;11.400;2023-05-07T11:56:14;24.40;99.90
48007;DHT22;33771;48.180;11.400;2023-05-07T11:58:40;24.40;99.90
48007;DHT22;33771;48.180;11.400;2023-05-07T12:01:11;24.30;99.90
48007;DHT22;33771;48.180;11.400;2023-05-07T12:03:39;24.30;99.90
48007;DHT22;33771;48.180;11.400;2023-05-07T12:06:08;24.40;99.90
48007;DHT22;33771;48.180;11.400;2023-05-07T12:08:36;24.40;99.90
48007;DHT22;33771;48.180;11.400;2023-05-07T12:11:03;24.40;99.90
48007;DHT22;33771;48.180;11.400;2023-05-07T12:13:28;24.30;99.90
48007;DHT22;33771;48.180;11.400;2023-05-07T12:15:55;24.40;99.90
48007;DHT22;33771;48.180;11.400;2023-05-07T12:18:23;24.50;99.90
48007;DHT22;33771;48.180;11.400;2023-05-07T12:20:49;24.50;99.90
48007;DHT22;33771;48.180;11.400;2023-05-07T12:23:15;24.60;99.90
48007;DHT22;33771;48.180;11.400;2023-05-07T12:25:42;24.60;99.90
48007;DHT22;33771;48.180;11.400;2023-05-07T12:28:15;24.70;99.90
48007;DHT22;33771;48.180;11.400;2023-05-07T12:30:43;24.80;99.90
48007;DHT22;33771;48.180;11.400;2023-05-07T12:33:10;24.80;99.90
48007;DHT22;33771;48.180;11.400;2023-05-07T12:35:38;24.70;99.90
48007;DHT22;33771;48.180;11.400;2023-05-07T12:38:14;24.80;99.90
48007;DHT22;33771;48.180;11.400;2023-05-07T12:43:15;24.70;99.90
48007;DHT22;33771;48.180;11.400;2023-05-07T12:45:42;24.70;99.90
48007;DHT22;33771;48.180;11.400;2023-05-07T12:48:10;24.50;99.90
48007;DHT22;33771;48.180;11.400;2023-05-07T12:50:38;24.50;99.90
48007;DHT22;33771;48.180;11.400;2023-05-07T12:53:04;24.40;99.90
48007;DHT22;33771;48.180;11.400;2023-05-07T12:55:41;24.20;99.90
48007;DHT22;33771;48.180;11.400;2023-05-07T12:58:07;24.10;99.90
48007;DHT22;33771;48.180;11.400;2023-05-07T13:00:38;24.00;99.90
48007;DHT22;33771;48.180;11.400;2023-05-07T13:03:04;24.00;99.90
48007;DHT22;33771;48.180;11.400;2023-05-07T13:05:30;24.00;99.90
48007;DHT22;33771;48.180;11.400;2023-05-07T13:07:56;23.90;99.90
48007;DHT22;33771;48.180;11.400;2023-05-07T13:10:23;23.80;99.90
48007;DHT22;33771;48.180;11.400;2023-05-07T13:12:49;23.70;99.90
48007;DHT22;33771;48.180;11.400;2023-05-07T13:15:15;23.70;99.90
48007;DHT22;33771;48.180;11.400;2023-05-07T13:17:41;23.70;99.90
48007;DHT22;33771;48.180;11.400;2023-05-07T13:20:08;23.80;99.90
48007;DHT22;33771;48.180;11.400;2023-05-07T13:22:34;23.80;99.90
48007;DHT22;33771;48.180;11.400;2023-05-07T13:24:59;23.60;99.90
48007;DHT22;33771;48.180;11.400;2023-05-07T13:27:25;23.80;99.90
48007;DHT22;33771;48.180;11.400;2023-05-07T13:29:51;23.70;99.90
48007;DHT22;33771;48.180;11.400;2023-05-07T13:32:17;23.70;99.90
48007;DHT22;33771;48.180;11.400;2023-05-07T13:34:42;23.50;99.90
48007;DHT22;33771;48.180;11.400;2023-05-07T13:37:08;23.40;99.90
48007;DHT22;33771;48.180;11.400;2023-05-07T13:39:33;23.30;99.90
48007;DHT22;33771;48.180;11.400;2023-05-07T13:41:59;23.10;99.90
48007;DHT22;33771;48.180;11.400;2023-05-07T13:44:25;23.00;99.90
48007;DHT22;33771;48.180;11.400;2023-05-07T13:46:50;23.00;99.90
48007;DHT22;33771;48.180;11.400;2023-05-07T13:49:16;23.00;99.90
48007;DHT22;33771;48.180;11.400;2023-05-07T13:51:42;22.90;99.90
48007;DHT22;33771;48.180;11.400;2023-05-07T13:54:07;22.90;99.90
48007;DHT22;33771;48.180;11.400;2023-05-07T13:56:33;22.90;99.90
48007;DHT22;33771;48.180;11.400;2023-05-07T13:58:59;22.90;99.90
48007;DHT22;33771;48.180;11.400;2023-05-07T14:01:24;22.90;99.90
48007;DHT22;33771;48.180;11.400;2023-05-07T14:03:50;22.90;99.90
48007;DHT22;33771;48.180;11.400;2023-05-07T14:06:15;22.90;99.90
48007;DHT22;33771;48.180;11.400;2023-05-07T14:08:41;22.90;99.90
48007;DHT22;33771;48.180;11.400;2023-05-07T14:11:07;22.80;99.90
48007;DHT22;33771;48.180;11.400;2023-05-07T14:13:32;22.70;99.90
48007;DHT22;33771;48.180;11.400;2023-05-07T14:15:59;22.60;99.90
48007;DHT22;33771;48.180;11.400;2023-05-07T14:18:26;22.40;99.90
48007;DHT22;33771;48.180;11.400;2023-05-07T14:20:52;22.30;99.90
48007;DHT22;33771;48.180;11.400;2023-05-07T14:23:17;22.20;99.90
48007;DHT22;33771;48.180;11.400;2023-05-07T14:25:45;22.20;99.90
48007;DHT22;33771;48.180;11.400;2023-05-07T14:28:13;22.10;99.90
48007;DHT22;33771;48.180;11.400;2023-05-07T14:30:38;22.10;99.90
48007;DHT22;33771;48.180;11.400;2023-05-07T14:33:04;22.00;99.90
48007;DHT22;33771;48.180;11.400;2023-05-07T14:35:30;22.00;99.90
48007;DHT22;33771;48.180;11.400;2023-05-07T14:37:55;22.00;99.90
48007;DHT22;33771;48.180;11.400;2023-05-07T14:40:21;21.90;99.90
48007;DHT22;33771;48.180;11.400;2023-05-07T14:42:46;21.90;99.90
48007;DHT22;33771;48.180;11.400;2023-05-07T14:45:12;21.80;99.90
48007;DHT22;33771;48.180;11.400;2023-05-07T14:47:38;21.80;99.90
48007;DHT22;33771;48.180;11.400;2023-05-07T14:50:03;21.70;99.90
48007;DHT22;33771;48.180;11.400;2023-05-07T14:52:29;21.60;99.90
48007;DHT22;33771;48.180;11.400;2023-05-07T14:54:57;21.50;99.90
48007;DHT22;33771;48.180;11.400;2023-05-07T14:57:22;21.60;99.90
48007;DHT22;33771;48.180;11.400;2023-05-07T14:59:48;21.60;99.90
48007;DHT22;33771;48.180;11.400;2023-05-07T15:02:14;21.50;99.90
48007;DHT22;33771;48.180;11.400;2023-05-07T15:04:40;21.40;99.90
48007;DHT22;33771;48.180;11.400;2023-05-07T15:07:11;21.40;99.90
48007;DHT22;33771;48.180;11.400;2023-05-07T15:09:40;21.30;99.90
48007;DHT22;33771;48.180;11.400;2023-05-07T15:12:06;21.30;99.90
48007;DHT22;33771;48.180;11.400;2023-05-07T15:14:31;21.30;99.90
48007;DHT22;33771;48.180;11.400;2023-05-07T15:16:57;21.20;99.90
48007;DHT22;33771;48.180;11.400;2023-05-07T15:19:22;21.20;99.90
48007;DHT22;33771;48.180;11.400;2023-05-07T15:21:50;21.00;99.90
48007;DHT22;33771;48.180;11.400;2023-05-07T15:24:15;21.00;99.90
48007;DHT22;33771;48.180;11.400;2023-05-07T15:26:41;20.90;99.90
48007;DHT22;33771;48.180;11.400;2023-05-07T15:29:07;20.90;99.90
48007;DHT22;33771;48.180;11.400;2023-05-07T15:31:35;20.90;99.90
48007;DHT22;33771;48.180;11.400;2023-05-07T15:34:02;20.80;99.90
48007;DHT22;33771;48.180;11.400;2023-05-07T15:36:28;20.80;99.90